Time;durP1;ratioP1;P1;durP2;ratioP2;P2;SDS_P1;SDS_P2;PMS_P1;PMS_P2;Temp;Humidity;BMP_temperature;BMP_pressure;BME280_temperature;BME280_humidity;BME280_pressure;Samples;Min_cycle;Max_cycle;Signal;HPM_P1;HPM_P2
2022/08/22 00:02:38;;;;;;;7.07;4.95;;;;;;;15.38;100.00;100198.22;4993391;28;20136;-81
2022/08/22 00:05:23;;;;;;;7.40;4.90;;;;;;;15.42;100.00;100198.72;5027133;28;20097;-80
2022/08/22 00:07:51;;;;;;;6.07;4.43;;;;;;;15.46;100.00;100192.72;4995262;28;20113;-81
2022/08/22 00:10:23;;;;;;;4.85;4.18;;;;;;;15.46;100.00;100192.72;4994057;28;20026;-81
2022/08/22 00:13:07;;;;;;;6.80;4.47;;;;;;;15.47;100.00;100191.38;4993878;28;20081;-79
2022/08/22 00:15:43;;;;;;;10.30;5.18;;;;;;;15.48;100.00;100195.81;5008904;28;20048;-81
2022/08/22 00:18:16;;;;;;;8.85;4.95;;;;;;;15.49;100.00;100206.03;4994330;28;20038;-80
2022/08/22 00:21:10;;;;;;;6.65;4.25;;;;;;;15.50;100.00;100205.53;4995033;28;20048;-80
2022/08/22 00:24:00;;;;;;;5.65;4.53;;;;;;;15.41;100.00;100207.91;4994317;28;20050;-81
2022/08/22 00:26:47;;;;;;;6.43;4.75;;;;;;;15.46;100.00;100201.34;4994623;28;20026;-81
2022/08/22 00:29:52;;;;;;;6.68;3.78;;;;;;;15.48;100.00;100211.00;4995279;28;20035;-81
2022/08/22 00:32:42;;;;;;;8.18;4.80;;;;;;;15.49;100.00;100203.16;5010125;28;20396;-81
2022/08/22 00:35:44;;;;;;;6.25;4.47;;;;;;;15.52;100.00;100205.75;4994373;28;20065;-81
2022/08/22 00:38:29;;;;;;;6.70;4.57;;;;;;;15.52;100.00;100204.97;4993003;28;20094;-81
2022/08/22 00:41:09;;;;;;;6.88;4.20;;;;;;;15.55;100.00;100201.03;5009481;28;20033;-81
2022/08/22 00:44:04;;;;;;;4.75;4.00;;;;;;;15.58;100.00;100199.97;4994254;28;20049;-78
2022/08/22 00:47:08;;;;;;;7.53;4.53;;;;;;;15.59;100.00;100196.59;5010588;28;20042;-79
2022/08/22 00:50:02;;;;;;;7.03;4.80;;;;;;;15.60;100.00;100194.50;4952365;28;20047;-80
2022/08/22 00:53:13;;;;;;;7.63;4.28;;;;;;;15.63;100.00;100188.47;4955234;28;20090;-80
2022/08/22 00:55:45;;;;;;;10.13;3.78;;;;;;;15.60;100.00;100191.63;4996191;28;20038;-79
2022/08/22 00:58:31;;;;;;;5.60;3.20;;;;;;;15.60;100.00;100201.06;4997714;28;20041;-81
2022/08/22 01:01:05;;;;;;;6.03;3.40;;;;;;;15.62;100.00;100197.63;4998392;28;20034;-80
2022/08/22 01:03:46;;;;;;;8.23;4.15;;;;;;;15.60;100.00;100195.28;5012912;28;20426;-81
2022/08/22 01:06:48;;;;;;;6.45;3.40;;;;;;;15.53;100.00;100183.50;4998012;28;20034;-80
2022/08/22 01:09:52;;;;;;;7.78;3.88;;;;;;;15.49;100.00;100185.88;4997966;28;20026;-79
2022/08/22 01:12:37;;;;;;;5.28;3.90;;;;;;;15.46;100.00;100178.31;4996589;28;20041;-79
2022/08/22 01:15:09;;;;;;;6.22;3.83;;;;;;;15.44;100.00;100186.69;4998445;28;20034;-80
2022/08/22 01:17:53;;;;;;;8.27;3.70;;;;;;;15.46;100.00;100186.94;4997944;28;20026;-81
2022/08/22 01:20:48;;;;;;;7.75;3.67;;;;;;;15.47;100.00;100197.13;4997223;28;20049;-79
2022/08/22 01:23:43;;;;;;;6.18;3.67;;;;;;;15.45;100.00;100189.03;4997404;28;20027;-80
2022/08/22 01:26:32;;;;;;;4.25;3.30;;;;;;;15.48;100.00;100195.81;4997935;28;20019;-80
2022/08/22 01:29:28;;;;;;;3.10;2.80;;;;;;;15.48;100.00;100193.72;4998033;28;20108;-81
2022/08/22 01:32:00;;;;;;;5.68;3.88;;;;;;;15.43;100.00;100188.00;4996211;28;20034;-80
2022/08/22 01:35:02;;;;;;;6.13;3.40;;;;;;;15.45;100.00;100189.03;4997973;28;20073;-80
2022/08/22 01:38:02;;;;;;;5.33;3.10;;;;;;;15.42;100.00;100187.22;5028669;28;20030;-80
2022/08/22 01:40:43;;;;;;;5.93;3.40;;;;;;;15.41;100.00;100194.31;4997337;28;20113;-80
2022/08/22 01:43:27;;;;;;;5.18;3.28;;;;;;;15.40;100.00;100200.59;4997953;28;20033;-80
2022/08/22 01:46:13;;;;;;;4.55;3.20;;;;;;;15.41;100.00;100190.63;5013479;28;20065;-80
2022/08/22 01:49:15;;;;;;;7.10;3.53;;;;;;;15.39;100.00;100194.03;4995894;28;20034;-80
2022/08/22 01:51:49;;;;;;;;;;;;;;;15.37;100.00;100198.75;4996644;28;20042;-81
2022/08/22 01:54:53;;;;;;;5.47;3.03;;;;;;;15.27;100.00;100196.16;4997816;28;19910;-80
2022/08/22 01:57:21;;;;;;;5.18;3.30;;;;;;;15.23;100.00;100194.88;4995721;28;20037;-80
2022/08/22 01:59:51;;;;;;;3.90;3.40;;;;;;;15.17;100.00;100192.00;5028289;28;20117;-80
2022/08/22 02:02:36;;;;;;;3.92;3.20;;;;;;;15.15;100.00;100196.75;4996211;28;20038;-80
2022/08/22 02:05:05;;;;;;;4.38;2.67;;;;;;;15.10;100.00;100206.16;4996622;28;20076;-79
2022/08/22 02:07:47;;;;;;;4.15;3.45;;;;;;;15.05;100.00;100199.13;5012269;28;20033;-80
2022/08/22 02:10:40;;;;;;;5.03;3.22;;;;;;;15.06;100.00;100200.69;4996805;28;20037;-80
2022/08/22 02:13:48;;;;;;;4.20;2.92;;;;;;;15.06;100.00;100200.69;4995892;28;20037;-81
2022/08/22 02:16:43;;;;;;;7.18;3.58;;;;;;;15.06;100.00;100205.66;4998160;28;20042;-79
2022/08/22 02:19:23;;;;;;;2.85;2.60;;;;;;;15.03;100.00;100201.72;4996892;28;20451;-80
2022/08/22 02:22:24;;;;;;;7.25;3.15;;;;;;;15.03;100.00;100200.94;4996542;28;20487;-80
2022/08/22 02:25:15;;;;;;;4.00;2.67;;;;;;;15.02;100.00;100205.16;5003736;28;20058;-81
2022/08/22 02:27:50;;;;;;;4.50;3.20;;;;;;;14.99;100.00;100206.97;4979122;28;20053;-81
2022/08/22 02:30:20;;;;;;;5.53;2.78;;;;;;;15.00;100.00;100207.75;4995842;28;20027;-81
2022/08/22 02:33:00;;;;;;;5.90;3.05;;;;;;;14.99;100.00;100209.06;4996339;28;20373;-81
2022/08/22 02:35:50;;;;;;;6.82;3.67;;;;;;;14.98;100.00;100205.41;4996723;28;20034;-81
2022/08/22 02:38:26;;;;;;;5.00;3.20;;;;;;;14.95;100.00;100206.47;4995364;28;20122;-81
2022/08/22 02:41:13;;;;;;;4.15;2.72;;;;;;;14.95;100.00;100202.81;4995215;28;20124;-81
2022/08/22 02:43:56;;;;;;;4.68;2.95;;;;;;;14.88;100.00;100204.09;5011620;28;20415;-81
2022/08/22 02:46:53;;;;;;;3.55;2.67;;;;;;;14.90;100.00;100198.63;4996516;28;20033;-81
2022/08/22 02:49:44;;;;;;;5.35;2.60;;;;;;;14.90;100.00;100207.25;4999449;28;20165;-80
2022/08/22 02:52:28;;;;;;;6.50;2.90;;;;;;;14.90;100.00;100203.59;4994848;28;20026;-81
2022/08/22 02:54:59;;;;;;;3.33;2.53;;;;;;;14.89;100.00;100202.03;5027961;28;20034;-81
2022/08/22 02:58:16;;;;;;;2.63;2.42;;;;;;;14.91;100.00;100208.03;4994798;28;20030;-81
2022/08/22 03:01:23;;;;;;;6.78;2.95;;;;;;;14.96;100.00;100205.16;5003730;28;20466;-80
2022/08/22 03:03:51;;;;;;;5.18;3.20;;;;;;;14.96;100.00;100210.13;4995899;28;20530;-79
2022/08/22 03:06:39;;;;;;;3.42;2.97;;;;;;;14.96;100.00;100207.25;5010923;28;20038;-80
2022/08/22 03:09:17;;;;;;;4.20;2.97;;;;;;;14.95;100.00;100206.47;5027625;28;20072;-81
2022/08/22 03:11:46;;;;;;;2.60;2.40;;;;;;;14.91;100.00;100205.16;4995123;28;20018;-80
2022/08/22 03:14:45;;;;;;;4.68;2.80;;;;;;;14.89;100.00;100205.69;4994411;28;20464;-81
2022/08/22 03:17:24;;;;;;;4.53;2.88;;;;;;;14.87;100.00;100210.41;4993930;28;20026;-80
2022/08/22 03:20:11;;;;;;;4.75;2.38;;;;;;;14.83;100.00;100216.41;4994628;28;20486;-81
2022/08/22 03:22:55;;;;;;;5.90;2.95;;;;;;;14.79;100.00;100216.69;4995560;28;20054;-80
2022/08/22 03:25:29;;;;;;;3.33;2.83;;;;;;;14.80;100.00;100221.13;5027041;28;20418;-80
2022/08/22 03:28:05;;;;;;;4.35;2.90;;;;;;;14.77;100.00;100225.03;4978041;28;20545;-80
2022/08/22 03:30:42;;;;;;;7.22;2.63;;;;;;;14.74;100.00;100220.34;5026998;28;20049;-80
2022/08/22 03:33:21;;;;;;;4.20;2.95;;;;;;;14.74;100.00;100214.59;5010197;28;20124;-80
2022/08/22 03:35:46;;;;;;;3.33;2.72;;;;;;;14.76;100.00;100219.84;5010316;28;20061;-80
2022/08/22 03:38:33;;;;;;;3.40;2.40;;;;;;;14.74;100.00;100222.44;4995903;28;20035;-80
2022/08/22 03:41:14;;;;;;;7.38;2.78;;;;;;;14.71;100.00;100217.75;4995750;28;20034;-80
2022/08/22 03:44:15;;;;;;;6.90;2.77;;;;;;;14.72;100.00;100222.97;4994301;28;20089;-80
2022/08/22 03:46:42;;;;;;;4.82;2.85;;;;;;;14.70;100.00;100219.84;4994677;28;20361;-80
2022/08/22 03:49:44;;;;;;;2.88;2.65;;;;;;;14.67;100.00;100217.22;4995567;28;20050;-80
2022/08/22 03:52:31;;;;;;;3.75;2.65;;;;;;;14.65;100.00;100217.75;4996181;28;20061;-80
2022/08/22 03:55:16;;;;;;;5.55;2.63;;;;;;;14.60;100.00;100220.63;4995639;28;20034;-79
2022/08/22 03:57:44;;;;;;;6.75;3.10;;;;;;;14.55;100.00;100218.50;4995383;28;20455;-79
2022/08/22 04:00:13;;;;;;;3.03;2.80;;;;;;;14.53;100.00;100226.88;4994748;28;20030;-79
2022/08/22 04:03:06;;;;;;;6.15;2.88;;;;;;;14.51;100.00;100218.75;4995278;28;20480;-81
2022/08/22 04:05:39;;;;;;;7.13;2.72;;;;;;;14.53;100.00;100224.75;4993930;28;20498;-79
2022/08/22 04:08:35;;;;;;;5.00;2.60;;;;;;;14.52;100.00;100219.56;5026764;28;20145;-80
2022/08/22 04:11:33;;;;;;;4.93;3.13;;;;;;;14.50;100.00;100210.66;4995162;28;20045;-80
2022/08/22 04:14:18;;;;;;;6.03;3.33;;;;;;;14.53;100.00;100221.13;4995242;28;20041;-80
2022/08/22 04:17:10;;;;;;;4.80;2.75;;;;;;;14.51;100.00;100213.00;4994319;28;20034;-80
2022/08/22 04:19:56;;;;;;;5.50;2.63;;;;;;;14.47;100.00;100218.25;4994392;28;20026;-80
2022/08/22 04:22:57;;;;;;;4.32;3.00;;;;;;;14.46;100.00;100216.69;4993610;28;20133;-80
2022/08/22 04:25:32;;;;;;;4.30;2.60;;;;;;;14.43;100.00;100212.75;4994989;28;20046;-81
2022/08/22 04:28:20;;;;;;;2.92;2.40;;;;;;;14.42;100.00;100219.81;4997141;28;20038;-81
2022/08/22 04:30:52;;;;;;;4.93;2.75;;;;;;;14.40;100.00;100213.00;4998921;28;20431;-81
2022/08/22 04:34:01;;;;;;;4.43;3.53;;;;;;;14.45;100.00;100217.19;4998415;28;20088;-80
2022/08/22 04:36:33;;;;;;;7.32;3.13;;;;;;;14.39;100.00;100212.22;5011898;28;20038;-80
2022/08/22 04:39:01;;;;;;;;;;;;;;;14.37;100.00;100216.94;4998928;28;20026;-80
2022/08/22 04:41:40;;;;;;;9.93;3.03;;;;;;;14.35;100.00;100216.66;5014081;28;19933;-80
2022/08/22 04:44:21;;;;;;;4.35;2.47;;;;;;;14.33;100.00;100220.03;4999075;28;20051;-80
2022/08/22 04:47:07;;;;;;;10.10;3.15;;;;;;;14.36;100.00;100224.78;4998634;28;20030;-81
2022/08/22 04:49:51;;;;;;;7.75;3.47;;;;;;;14.39;100.00;100215.09;5011009;28;20034;-81
2022/08/22 04:52:42;;;;;;;10.77;3.55;;;;;;;14.40;100.00;100208.03;5017160;28;20052;-81
2022/08/22 04:55:21;;;;;;;7.07;3.60;;;;;;;14.40;100.00;100208.03;5018361;28;20080;-81
2022/08/22 04:58:09;;;;;;;6.82;3.72;;;;;;;14.45;100.00;100205.69;5017811;28;20044;-80
2022/08/22 05:00:41;;;;;;;6.05;3.42;;;;;;;14.43;100.00;100209.88;5022551;28;20033;-82
2022/08/22 05:03:14;;;;;;;5.82;3.20;;;;;;;14.43;100.00;100204.13;5036827;28;20037;-80
2022/08/22 05:05:41;;;;;;;4.97;3.45;;;;;;;14.45;100.00;100203.59;5003692;28;20040;-80
2022/08/22 05:08:12;;;;;;;3.83;3.42;;;;;;;14.49;100.00;100209.06;4996947;28;20029;-81
2022/08/22 05:10:41;;;;;;;6.07;3.50;;;;;;;14.54;100.00;100197.59;5014202;28;20064;-80
2022/08/22 05:13:17;;;;;;;5.65;3.35;;;;;;;14.58;100.00;100200.19;5028681;28;20029;-81
2022/08/22 05:15:47;;;;;;;9.00;3.88;;;;;;;14.52;100.00;100213.81;5006354;28;20390;-81
2022/08/22 05:18:19;;;;;;;4.63;3.10;;;;;;;14.50;100.00;100211.44;5017894;28;20037;-81
2022/08/22 05:20:46;;;;;;;;;;;;;;;14.53;100.00;100218.25;5021072;28;20149;-78
2022/08/22 05:23:32;;;;;;;6.10;4.25;;;;;;;14.55;100.00;100219.28;5003350;28;19909;-80
2022/08/22 05:26:00;;;;;;;31.13;7.93;;;;;;;14.58;100.00;100217.44;5017581;28;20042;-81
2022/08/22 05:28:39;;;;;;;7.55;4.57;;;;;;;14.56;100.00;100212.22;5016425;28;20387;-80
2022/08/22 05:31:16;;;;;;;4.90;3.53;;;;;;;14.58;100.00;100218.25;4999914;28;20052;-78
2022/08/22 05:34:10;;;;;;;7.28;4.00;;;;;;;14.55;100.00;100219.28;5015837;28;20049;-78
2022/08/22 05:36:40;;;;;;;9.38;4.43;;;;;;;14.57;100.00;100216.69;5016859;28;20028;-80
2022/08/22 05:39:12;;;;;;;7.63;3.20;;;;;;;14.57;100.00;100225.31;5016159;28;20430;-79
2022/08/22 05:41:39;;;;;;;6.70;3.40;;;;;;;14.58;100.00;100226.88;5016955;28;20037;-77
2022/08/22 05:44:21;;;;;;;7.07;4.07;;;;;;;14.59;100.00;100221.91;4999845;28;20042;-80
2022/08/22 05:47:04;;;;;;;7.88;4.03;;;;;;;14.63;100.00;100228.19;5018871;28;20036;-81
2022/08/22 05:49:31;;;;;;;6.97;3.35;;;;;;;14.62;100.00;100236.06;5002566;28;20034;-79
2022/08/22 05:52:11;;;;;;;6.38;3.15;;;;;;;14.63;100.00;100222.44;5016887;28;20033;-80
2022/08/22 05:54:52;;;;;;;11.82;3.60;;;;;;;14.61;100.00;100233.69;5012965;28;20036;-79
2022/08/22 05:57:29;;;;;;;4.97;3.13;;;;;;;14.59;100.00;100233.44;5052315;28;20037;-79
2022/08/22 06:00:01;;;;;;;10.50;3.47;;;;;;;14.54;100.00;100229.22;5019486;28;20171;-79
2022/08/22 06:02:53;;;;;;;20.25;6.25;;;;;;;14.64;100.00;100247.03;5034892;28;20039;-78
2022/08/22 06:05:30;;;;;;;5.68;3.42;;;;;;;14.61;100.00;100240.25;5035796;28;20391;-79
2022/08/22 06:08:04;;;;;;;3.90;2.72;;;;;;;14.62;100.00;100247.56;5051353;28;20414;-76
2022/08/22 06:10:44;;;;;;;6.03;3.30;;;;;;;14.62;100.00;100244.69;5058516;28;20096;-78
2022/08/22 06:13:36;;;;;;;5.55;3.53;;;;;;;14.64;100.00;100247.81;5001790;28;20076;-76
2022/08/22 06:16:11;;;;;;;8.05;3.35;;;;;;;14.66;100.00;100250.97;5051238;28;20474;-79
2022/08/22 06:18:40;;;;;;;9.18;3.80;;;;;;;14.67;100.00;100251.75;5016625;28;20038;-78
2022/08/22 06:21:11;;;;;;;8.02;3.65;;;;;;;14.72;100.00;100254.63;4999033;28;20553;-80
2022/08/22 06:23:48;;;;;;;6.97;3.97;;;;;;;14.71;100.00;100255.13;5017270;28;20387;-86
2022/08/22 06:26:15;;;;;;;6.13;3.25;;;;;;;14.69;100.00;100249.13;5018870;28;20100;-87
2022/08/22 06:28:59;;;;;;;6.88;3.17;;;;;;;14.69;100.00;100261.41;5019389;28;20040;-87
2022/08/22 06:31:38;;;;;;;4.57;2.75;;;;;;;14.64;100.00;100252.78;5018115;28;20110;-88
2022/08/22 06:34:09;;;;;;;5.15;2.70;;;;;;;14.66;100.00;100262.47;4985208;28;20129;-89
2022/08/22 06:36:37;;;;;;;;;;;;;;;14.64;100.00;100264.28;5016558;28;20029;-78
2022/08/22 06:39:05;;;;;;;8.73;5.05;;;;;;;14.64;100.00;100256.44;5047093;28;19913;-80
2022/08/22 06:41:35;;;;;;;7.20;3.20;;;;;;;14.61;100.00;100256.69;5016638;28;20026;-80
2022/08/22 06:44:03;;;;;;;3.55;2.53;;;;;;;14.59;100.00;100262.97;4999340;28;20065;-79
2022/08/22 06:46:45;;;;;;;4.25;2.65;;;;;;;14.63;100.00;100274.22;4998576;28;20042;-79
2022/08/22 06:49:11;;;;;;;8.50;3.10;;;;;;;14.64;100.00;100273.69;5014032;28;20021;-81
2022/08/22 06:51:45;;;;;;;3.65;2.42;;;;;;;14.67;100.00;100266.91;5014959;28;20038;-82
2022/08/22 06:54:20;;;;;;;4.85;3.72;;;;;;;14.69;100.00;100272.13;5016067;28;20029;-79
2022/08/22 06:56:48;;;;;;;5.72;2.50;;;;;;;14.73;100.00;100272.63;5015288;28;20395;-81
2022/08/22 06:59:17;;;;;;;3.38;3.03;;;;;;;14.76;100.00;100263.78;4996252;28;20026;-79
2022/08/22 07:01:53;;;;;;;5.18;2.75;;;;;;;14.78;100.00;100266.09;5014921;28;20029;-81
2022/08/22 07:04:26;;;;;;;4.13;2.90;;;;;;;14.80;100.00;100267.16;5016070;28;20053;-80
2022/08/22 07:06:53;;;;;;;3.35;2.80;;;;;;;14.83;100.00;100265.31;5014673;28;20034;-74
2022/08/22 07:09:33;;;;;;;5.47;3.10;;;;;;;14.88;100.00;100260.88;5015334;28;20033;-78
2022/08/22 07:12:04;;;;;;;2.97;2.63;;;;;;;14.92;100.00;100264.28;5014700;28;20044;-80
2022/08/22 07:14:51;;;;;;;2.63;2.40;;;;;;;14.93;100.00;100265.84;4998464;28;20121;-81
2022/08/22 07:17:26;;;;;;;3.95;2.60;;;;;;;14.94;100.00;100267.41;5015736;28;20428;-78
2022/08/22 07:20:22;;;;;;;2.70;2.15;;;;;;;14.93;100.00;100263.75;5016581;28;20026;-79
2022/08/22 07:23:33;;;;;;;4.22;2.53;;;;;;;14.89;100.00;100265.31;5016632;28;20052;-81
2022/08/22 07:26:15;;;;;;;7.00;3.25;;;;;;;14.86;100.00;100263.50;5008820;28;20037;-81
2022/08/22 07:28:57;;;;;;;5.88;2.55;;;;;;;14.83;100.00;100273.94;5015929;28;20386;-80
2022/08/22 07:32:18;;;;;;;2.97;2.38;;;;;;;14.82;100.00;100272.41;5014254;28;20038;-81
2022/08/22 07:35:12;;;;;;;4.60;2.70;;;;;;;14.84;100.00;100284.94;5007348;28;20041;-80
2022/08/22 07:37:59;;;;;;;3.10;2.60;;;;;;;14.93;100.00;100278.13;5013669;28;20114;-80
2022/08/22 07:40:44;;;;;;;3.85;2.60;;;;;;;15.03;100.00;100275.78;5013447;28;20033;-81
2022/08/22 07:43:42;;;;;;;6.03;3.15;;;;;;;15.08;100.00;100274.97;5014318;28;20081;-74
2022/08/22 07:46:26;;;;;;;2.63;2.40;;;;;;;15.15;100.00;100268.69;5016034;28;20032;-85
2022/08/22 07:48:57;;;;;;;7.55;3.95;;;;;;;15.24;100.00;100274.97;5014338;28;20026;-76
2022/08/22 07:51:34;;;;;;;5.47;2.78;;;;;;;15.27;100.00;100273.13;5046014;28;20084;-77
2022/08/22 07:54:36;;;;;;;9.48;3.00;;;;;;;15.28;100.00;100269.72;5043773;28;20021;-77
2022/08/22 07:57:06;;;;;;;5.03;2.40;;;;;;;15.31;100.00;100288.03;5013749;28;20467;-77
2022/08/22 07:59:38;;;;;;;3.72;2.33;;;;;;;15.31;100.00;100287.25;5014517;28;20025;-79
2022/08/22 08:02:09;;;;;;;2.95;2.60;;;;;;;15.34;100.00;100283.31;5046191;28;20018;-79
2022/08/22 08:04:37;;;;;;;3.03;2.47;;;;;;;15.42;100.00;100284.34;5016227;28;20057;-80
2022/08/22 08:07:07;;;;;;;3.33;2.40;;;;;;;15.55;100.00;100276.72;5017152;28;20049;-79
2022/08/22 08:09:40;;;;;;;2.72;2.25;;;;;;;15.63;100.00;100289.28;5015370;28;20022;-78
2022/08/22 08:12:07;;;;;;;2.38;1.95;;;;;;;15.69;100.00;100292.94;5031163;28;20026;-76
2022/08/22 08:14:54;;;;;;;5.93;2.80;;;;;;;15.72;100.00;100301.81;5016106;28;20034;-78
2022/08/22 08:17:27;;;;;;;3.45;2.50;;;;;;;15.74;100.00;100297.13;5049083;28;20030;-76
2022/08/22 08:19:54;;;;;;;2.70;2.17;;;;;;;15.78;100.00;100293.94;5048714;28;20040;-75
2022/08/22 08:22:24;;;;;;;2.67;2.47;;;;;;;15.78;100.00;100288.19;5048572;28;20082;-75
2022/08/22 08:24:53;;;;;;;4.28;2.60;;;;;;;15.85;100.00;100302.06;5031793;28;20056;-75
2022/08/22 08:30:21;;;;;;;4.82;2.60;;;;;;;15.98;100.00;100305.13;5015986;28;20044;-72
2022/08/22 08:32:53;;;;;;;3.00;2.65;;;;;;;16.05;100.00;100295.94;5017239;28;20044;-75
2022/08/22 08:35:21;;;;;;;18.98;4.18;;;;;;;16.13;100.00;100297.72;5048817;28;20034;-74
2022/08/22 08:37:57;;;;;;;3.90;2.40;;;;;;;16.20;100.00;100296.38;5048988;28;20521;-73
2022/08/22 08:40:58;;;;;;;4.82;2.80;;;;;;;16.27;100.00;100295.81;5016216;28;20026;-74
2022/08/22 08:43:45;;;;;;;3.30;2.30;;;;;;;16.28;100.00;100297.38;5018086;28;20168;-73
2022/08/22 08:46:45;;;;;;;3.10;2.85;;;;;;;16.32;100.00;100295.00;5017272;28;20041;-74
2022/08/22 08:49:33;;;;;;;3.53;2.42;;;;;;;16.38;100.00;100294.97;4994913;28;20035;-73
2022/08/22 08:52:23;;;;;;;2.40;2.00;;;;;;;16.38;100.00;100292.88;4995136;28;20110;-75
2022/08/22 08:55:10;;;;;;;7.85;2.47;;;;;;;16.41;100.00;100293.88;4995133;28;20076;-72
2022/08/22 08:58:18;;;;;;;6.32;2.35;;;;;;;16.46;100.00;100295.94;4994594;28;20042;-72
2022/08/22 09:01:00;;;;;;;3.40;2.20;;;;;;;16.53;100.00;100306.94;4990728;28;20530;-78
2022/08/22 09:03:46;;;;;;;7.40;5.15;;;;;;;16.58;100.00;100299.56;4995028;28;20030;-74
2022/08/22 09:06:50;;;;;;;3.25;1.98;;;;;;;16.57;100.00;100300.88;4999726;28;20037;-77
2022/08/22 09:09:37;;;;;;;8.73;2.72;;;;;;;16.57;100.00;100289.34;5016521;28;20053;-76
2022/08/22 09:12:40;;;;;;;7.82;2.42;;;;;;;16.60;100.00;100297.72;5016349;28;20084;-77
2022/08/22 09:15:27;;;;;;;6.97;2.88;;;;;;;16.74;100.00;100295.78;5015337;28;20474;-74
2022/08/22 09:18:07;;;;;;;5.88;2.65;;;;;;;16.80;100.00;100294.41;4959438;28;20030;-79
2022/08/22 09:20:57;;;;;;;2.63;2.40;;;;;;;16.86;100.00;100292.28;4975355;28;20066;-74
2022/08/22 09:23:47;;;;;;;4.90;2.63;;;;;;;16.88;100.00;100292.53;4974903;28;20027;-75
2022/08/22 09:26:20;;;;;;;3.30;2.28;;;;;;;16.94;100.00;100296.13;4975102;28;20023;-80
2022/08/22 09:29:04;;;;;;;3.03;2.75;;;;;;;16.99;100.00;100300.31;4988920;28;20040;-73
2022/08/22 09:31:41;;;;;;;5.35;2.50;;;;;;;17.06;100.00;100290.25;5016290;28;20497;-78
2022/08/22 09:34:17;;;;;;;3.72;2.53;;;;;;;17.13;100.00;100293.34;5015343;28;20479;-75
2022/08/22 09:37:03;;;;;;;5.93;3.45;;;;;;;17.18;100.00;100297.50;5015486;28;20036;-77
2022/08/22 09:39:44;;;;;;;8.00;3.85;;;;;;;17.22;100.00;100298.78;5016960;28;20049;-75
2022/08/22 09:42:17;;;;;;;4.28;3.20;;;;;;;17.26;100.00;100289.81;5017381;28;20470;-86
2022/08/22 09:45:11;;;;;;;7.60;3.40;;;;;;;17.29;100.00;100300.31;5018212;28;20056;-81
2022/08/22 09:47:52;;;;;;;5.20;3.70;;;;;;;17.35;100.00;100296.00;5015004;28;20021;-80
2022/08/22 09:50:31;;;;;;;3.70;3.13;;;;;;;17.36;100.00;100285.25;5014269;28;20037;-77
2022/08/22 09:53:20;;;;;;;5.32;3.47;;;;;;;17.32;100.00;100302.09;5015518;28;20103;-78
2022/08/22 09:56:07;;;;;;;5.30;3.97;;;;;;;17.33;100.00;100301.56;5018885;28;20041;-85
2022/08/22 09:59:02;;;;;;;5.50;3.83;;;;;;;17.37;100.00;100290.50;5016582;28;20045;-82
2022/08/22 10:01:38;;;;;;;7.18;4.75;;;;;;;17.40;100.00;100289.41;4998918;28;20033;-81
2022/08/22 10:04:30;;;;;;;6.85;4.10;;;;;;;17.43;100.00;100296.22;5016205;28;20105;-79
2022/08/22 10:07:46;;;;;;;5.25;3.90;;;;;;;17.43;100.00;100290.44;5018329;28;20084;-85
2022/08/22 10:10:40;;;;;;;6.82;4.07;;;;;;;17.47;100.00;100288.06;4999148;28;20038;-80
2022/08/22 10:13:43;;;;;;;8.25;4.03;;;;;;;17.53;100.00;100291.66;5017515;28;20033;-82
2022/08/22 10:16:42;;;;;;;6.43;4.55;;;;;;;17.57;100.00;100294.25;5014973;28;20026;-79
2022/08/22 10:19:38;;;;;;;6.53;4.75;;;;;;;17.64;100.00;100285.75;5016470;28;20025;-79
2022/08/22 10:22:40;;;;;;;5.43;4.40;;;;;;;17.67;100.00;100296.22;5014136;28;20046;-77
2022/08/22 10:25:16;;;;;;;;;;;;;;;17.65;100.00;100293.09;4998376;28;20471;-80
2022/08/22 10:27:59;;;;;;;7.13;5.05;;;;;;;17.63;100.00;100292.88;5016921;28;19909;-82
2022/08/22 10:30:31;;;;;;;6.95;5.32;;;;;;;17.59;100.00;100294.47;5016289;28;20026;-82
2022/08/22 10:33:07;;;;;;;8.43;5.72;;;;;;;17.54;100.00;100296.09;5015407;28;20026;-84
2022/08/22 10:35:59;;;;;;;7.40;5.75;;;;;;;17.46;100.00;100291.47;5015783;28;20026;-83
2022/08/22 10:38:31;;;;;;;13.15;6.00;;;;;;;17.44;100.00;100297.78;5016471;28;20026;-85
2022/08/22 10:40:59;;;;;;;8.88;6.22;;;;;;;17.45;100.00;100299.34;4986643;28;20029;-86
2022/08/22 10:43:59;;;;;;;7.85;5.60;;;;;;;17.43;100.00;100296.22;5017781;28;20075;-85
2022/08/22 10:46:39;;;;;;;7.72;6.60;;;;;;;17.35;100.00;100295.22;5015442;28;20053;-78
2022/08/22 10:49:18;;;;;;;11.73;6.18;;;;;;;17.32;100.00;100300.00;5014115;28;20552;-81
2022/08/22 10:52:08;;;;;;;8.57;6.20;;;;;;;17.27;100.00;100300.84;4995661;28;20419;-75
2022/08/22 10:54:57;;;;;;;11.27;7.30;;;;;;;17.27;100.00;100308.72;5013608;28;20491;-76
2022/08/22 10:57:41;;;;;;;10.05;7.30;;;;;;;17.24;100.00;100298.25;5013599;28;20029;-74
2022/08/22 11:00:12;;;;;;;10.90;7.30;;;;;;;17.14;100.00;100308.59;5015940;28;20030;-81
2022/08/22 11:02:53;;;;;;;11.02;6.88;;;;;;;17.01;100.00;100308.41;5015590;28;20026;-80
2022/08/22 11:05:35;;;;;;;11.50;7.82;;;;;;;16.92;100.00;100304.56;4996944;28;20390;-74
2022/08/22 11:08:25;;;;;;;10.23;7.88;;;;;;;16.87;100.00;100308.28;5014414;28;20030;-80
2022/08/22 11:11:03;;;;;;;9.77;7.05;;;;;;;16.83;100.00;100301.22;5012832;28;20137;-83
2022/08/22 11:14:16;;;;;;;7.85;7.05;;;;;;;16.83;100.00;100295.47;5013612;28;20071;-78
2022/08/22 11:16:47;;;;;;;18.83;9.35;;;;;;;16.83;100.00;100290.47;4968919;28;20037;-80
2022/08/22 11:19:25;;;;;;;27.90;10.40;;;;;;;16.84;100.00;100286.28;5015211;28;20487;-83
2022/08/22 11:22:19;;;;;;;17.35;8.27;;;;;;;16.88;100.00;100289.63;5015154;28;20073;-78
2022/08/22 11:25:19;;;;;;;20.20;8.32;;;;;;;16.90;100.00;100295.66;5016071;28;20058;-81
2022/08/22 11:28:07;;;;;;;12.38;7.75;;;;;;;16.92;100.00;100293.00;5014120;28;20021;-79
2022/08/22 11:30:55;;;;;;;11.18;7.10;;;;;;;16.93;100.00;100288.81;5011114;28;20096;-78
2022/08/22 11:33:46;;;;;;;12.93;6.80;;;;;;;17.09;100.00;100294.97;5012815;28;20391;-78
2022/08/22 11:36:40;;;;;;;12.20;6.87;;;;;;;17.13;100.00;100307.78;5013317;28;20034;-81
2022/08/22 11:39:31;;;;;;;18.10;7.90;;;;;;;17.18;100.00;100300.41;5021460;28;20315;-84
2022/08/22 11:42:23;;;;;;;14.07;7.80;;;;;;;17.29;100.00;100297.41;5016612;28;20064;-79
2022/08/22 11:44:54;;;;;;;8.93;7.43;;;;;;;17.38;100.00;100294.94;5014365;28;20050;-83
2022/08/22 11:47:24;;;;;;;7.82;6.72;;;;;;;17.49;100.00;100296.19;4997747;28;20027;-84
2022/08/22 11:49:58;;;;;;;10.60;7.35;;;;;;;17.57;100.00;100300.03;5014066;28;20399;-84
2022/08/22 11:52:59;;;;;;;13.57;7.88;;;;;;;17.59;100.00;100312.59;5014316;28;20058;-80
2022/08/22 11:55:58;;;;;;;10.00;7.55;;;;;;;17.63;100.00;100295.75;5002048;28;20092;-80
2022/08/22 11:58:27;;;;;;;10.75;7.80;;;;;;;17.69;100.00;100302.25;5016838;28;20033;-82
2022/08/22 12:01:04;;;;;;;9.77;8.43;;;;;;;17.79;100.00;100306.31;5014539;28;20029;-77
2022/08/22 12:03:49;;;;;;;12.18;7.70;;;;;;;17.86;100.00;100304.16;4996350;28;20368;-80
2022/08/22 12:06:45;;;;;;;12.75;8.20;;;;;;;17.94;100.00;100305.09;5012144;28;20488;-76
2022/08/22 12:09:23;;;;;;;13.07;8.38;;;;;;;18.02;100.00;100306.84;5013696;28;20022;-77
2022/08/22 12:12:37;;;;;;;12.48;8.02;;;;;;;18.12;100.00;100307.25;5012565;28;20030;-79
2022/08/22 12:15:20;;;;;;;11.90;8.45;;;;;;;18.19;100.00;100310.28;4983171;28;20085;-78
2022/08/22 12:18:16;;;;;;;11.38;9.15;;;;;;;18.33;100.00;100308.28;4995206;28;20038;-80
2022/08/22 12:21:22;;;;;;;11.13;7.60;;;;;;;18.41;100.00;100303.44;5011790;28;20056;-77
2022/08/22 12:24:16;;;;;;;9.57;7.53;;;;;;;18.52;100.00;100303.25;5012967;28;20463;-77
2022/08/22 12:27:10;;;;;;;10.75;7.90;;;;;;;18.56;100.00;100302.97;5012279;28;20508;-78
2022/08/22 12:29:54;;;;;;;12.15;8.57;;;;;;;18.64;100.00;100307.56;5012742;28;20029;-79
2022/08/22 12:32:33;;;;;;;12.77;7.35;;;;;;;18.68;100.00;100290.66;5013171;28;20042;-77
2022/08/22 12:35:25;;;;;;;8.80;7.10;;;;;;;18.73;100.00;100302.69;5012354;28;20566;-77